Chews Landing, New Jersey
Current Conditions -  °F | °C
As of 1:10 AM on Monday 26 Jan 2015 (Local Time) from KPHL Reporting Station
Overcast Overcast  
Wind Chill: 22°   Ceiling: 3600
Heat Index: 31°   Visibility: 10mi
Dew Point: 26°   Wind: 12mph
Humidity: 82%   Direction: 60°ENE
Pressure: 29.96"   Gusts: NA
Location:  39.778°N, 75.0552°W
Report Text: KPHL 260610Z 06010KT 10SM FEW009 SCT024 OVC036 M01/M03 A2996 RMK AO2 T10061033
Loading
Personal Weather Stations






























Interactive Weather Map New forecast layout! Learn more

10-Day Weather Forecast

Advertisements
Track Severe Weather on mobile